createdAt,value
2019-03-06T00:04:23.979Z,8.17
2019-03-06T00:09:30.820Z,7.70
2019-03-06T00:14:37.435Z,8.17
2019-03-06T00:19:44.137Z,8.23
2019-03-06T00:24:51.910Z,8.00
2019-03-06T00:29:58.559Z,7.93
2019-03-06T00:35:08.313Z,8.47
2019-03-06T00:45:58.810Z,8.53
2019-03-06T00:51:04.834Z,9.40
2019-03-06T00:56:11.399Z,9.43
2019-03-06T01:01:19.207Z,9.07
2019-03-06T01:06:27.597Z,9.77
2019-03-06T01:11:34.321Z,8.03
2019-03-06T01:16:41.103Z,9.20
2019-03-06T01:21:47.801Z,9.97
2019-03-06T01:26:54.330Z,9.40
2019-03-06T01:32:02.415Z,9.37
2019-03-06T01:37:23.647Z,10.30
2019-03-06T01:48:08.142Z,11.00
2019-03-06T01:53:37.354Z,10.73
2019-03-06T01:58:44.295Z,10.80
2019-03-06T02:03:51.892Z,10.63
2019-03-06T02:08:57.945Z,10.80
2019-03-06T02:14:23.272Z,10.67
2019-03-06T02:19:30.266Z,11.10
2019-03-06T02:24:37.113Z,12.13
2019-03-06T02:29:43.976Z,11.20
2019-03-06T02:35:09.559Z,12.33
2019-03-06T02:40:16.285Z,11.30
2019-03-06T02:45:23.551Z,11.40
2019-03-06T02:50:30.361Z,11.53
2019-03-06T02:55:38.409Z,11.60
2019-03-06T03:00:58.468Z,10.93
2019-03-06T03:06:06.922Z,11.00
2019-03-06T03:11:13.894Z,11.70
2019-03-06T03:16:20.979Z,9.90
2019-03-06T03:21:28.189Z,11.47
2019-03-06T03:26:37.643Z,11.63
2019-03-06T03:31:44.678Z,11.50
2019-03-06T03:36:51.918Z,9.90
2019-03-06T03:41:57.914Z,10.83
2019-03-06T03:47:05.017Z,10.87
2019-03-06T03:52:13.257Z,10.97
2019-03-06T03:57:20.734Z,11.37
2019-03-06T04:02:39.892Z,10.20
2019-03-06T04:07:46.569Z,9.97
2019-03-06T04:13:14.835Z,10.93
2019-03-06T04:18:21.502Z,10.73
2019-03-06T04:23:28.389Z,11.00
2019-03-06T04:28:36.337Z,10.53
2019-03-06T04:33:43.309Z,11.60
2019-03-06T04:38:49.905Z,11.50
2019-03-06T04:44:17.827Z,10.40
2019-03-06T04:49:26.441Z,10.80
2019-03-06T04:54:32.979Z,11.50
2019-03-06T04:59:39.577Z,11.03
2019-03-06T05:04:46.170Z,9.10
2019-03-06T05:09:54.726Z,9.13
2019-03-06T05:15:00.724Z,9.03
2019-03-06T05:20:09.578Z,8.90
2019-03-06T05:25:36.131Z,8.90
2019-03-06T05:31:04.944Z,9.67
2019-03-06T05:36:51.643Z,9.00
2019-03-06T05:41:58.512Z,8.93
2019-03-06T05:47:06.148Z,7.97
2019-03-06T05:52:12.926Z,10.50
2019-03-06T05:57:19.707Z,8.77
2019-03-06T06:02:27.965Z,8.77
2019-03-06T06:07:34.928Z,9.13
2019-03-06T06:12:41.889Z,8.83
2019-03-06T06:17:49.855Z,8.77
2019-03-06T06:23:05.942Z,8.97
2019-03-06T06:28:12.752Z,9.07
2019-03-06T06:33:40.572Z,7.60
2019-03-06T06:38:48.534Z,9.13
2019-03-06T06:43:56.456Z,9.63
2019-03-06T06:49:03.622Z,10.40
2019-03-06T06:54:28.794Z,10.30
2019-03-06T07:00:18.667Z,9.97
2019-03-06T07:05:27.504Z,9.17
2019-03-06T07:11:05.565Z,9.13
2019-03-06T07:16:14.103Z,8.90
2019-03-06T07:21:22.584Z,8.37
2019-03-06T07:26:45.910Z,7.50
2019-03-06T07:32:08.794Z,10.70
2019-03-06T07:37:17.174Z,7.10
2019-03-06T07:42:25.763Z,7.13
2019-03-06T07:47:36.627Z,10.10
2019-03-06T07:53:00.085Z,7.00
2019-03-06T07:58:47.783Z,6.70
2019-03-06T08:04:01.570Z,6.47
2019-03-06T08:09:21.799Z,5.93
2019-03-06T08:20:10.957Z,5.30
2019-03-06T08:25:26.542Z,6.00
2019-03-06T08:30:35.267Z,5.87
2019-03-06T08:35:42.133Z,5.57
2019-03-06T08:40:48.517Z,5.67
2019-03-06T08:45:59.904Z,5.30
2019-03-06T08:51:08.340Z,5.03
2019-03-06T08:56:31.985Z,4.47
2019-03-06T09:02:00.047Z,4.30
2019-03-06T09:07:01.516Z,3.60
2019-03-06T09:12:09.723Z,3.53
2019-03-06T09:17:28.468Z,3.43
2019-03-06T09:28:01.890Z,3.80
2019-03-06T09:33:13.381Z,3.80
2019-03-06T09:38:38.139Z,3.37
2019-03-06T09:43:51.601Z,3.40
2019-03-06T09:49:11.518Z,3.07
2019-03-06T09:54:19.518Z,3.60
2019-03-06T09:59:27.771Z,4.80
2019-03-06T10:04:53.043Z,4.07
2019-03-06T10:10:07.348Z,3.93
2019-03-06T10:15:16.195Z,3.93
2019-03-06T10:20:26.573Z,4.43
2019-03-06T10:25:33.671Z,3.27
2019-03-06T10:30:40.819Z,3.77
2019-03-06T10:35:46.873Z,2.90
2019-03-06T10:40:53.839Z,3.90
2019-03-06T10:46:00.914Z,3.70
2019-03-06T10:51:07.952Z,3.00
2019-03-06T10:56:14.695Z,3.57
2019-03-06T11:01:22.887Z,3.47
2019-03-06T11:06:30.606Z,3.40
2019-03-06T11:11:37.535Z,2.33
2019-03-06T11:16:44.233Z,2.30
2019-03-06T11:21:53.156Z,2.60
2019-03-06T11:26:59.758Z,2.20
2019-03-06T11:32:08.825Z,2.37
2019-03-06T11:37:16.181Z,2.50
2019-03-06T11:42:22.658Z,2.33
2019-03-06T11:47:29.132Z,3.40
2019-03-06T11:52:35.826Z,3.90
2019-03-06T11:57:45.083Z,4.30
2019-03-06T12:02:55.390Z,5.03
2019-03-06T12:08:02.970Z,5.47
2019-03-06T12:13:13.820Z,6.20
2019-03-06T12:18:23.746Z,7.13
2019-03-06T12:23:30.749Z,5.27
2019-03-06T12:28:37.270Z,6.20
2019-03-06T12:33:44.051Z,6.63
2019-03-06T12:38:52.706Z,5.20
2019-03-06T12:43:58.904Z,4.30
2019-03-06T12:49:04.984Z,5.10
2019-03-06T12:54:11.953Z,5.20
2019-03-06T12:59:19.368Z,4.80
2019-03-06T13:04:26.145Z,3.73
2019-03-06T13:09:32.888Z,3.00
2019-03-06T13:14:39.839Z,3.03
2019-03-06T13:20:10.297Z,3.33
2019-03-06T13:25:24.452Z,3.10
2019-03-06T13:30:34.312Z,2.50
2019-03-06T13:35:41.725Z,1.93
2019-03-06T13:40:47.743Z,3.67
2019-03-06T13:45:53.810Z,2.47
2019-03-06T13:51:00.835Z,3.17
2019-03-06T13:56:08.574Z,2.83
2019-03-06T14:01:15.889Z,2.40
2019-03-06T14:06:23.726Z,2.20
2019-03-06T14:11:30.466Z,2.40
2019-03-06T14:16:39.277Z,2.47
2019-03-06T14:21:46.107Z,2.30
2019-03-06T14:26:53.794Z,2.87
2019-03-06T14:32:02.423Z,1.83
2019-03-06T14:37:09.926Z,2.87
2019-03-06T14:42:16.929Z,2.20
2019-03-06T14:47:23.648Z,2.70
2019-03-06T14:52:31.042Z,2.83
2019-03-06T14:57:39.330Z,2.73
2019-03-06T15:02:45.389Z,2.60
2019-03-06T15:07:51.359Z,2.53
2019-03-06T15:12:57.327Z,2.70
2019-03-06T15:18:10.576Z,2.40
2019-03-06T15:23:13.335Z,2.60
2019-03-06T15:28:20.029Z,2.57
2019-03-06T15:33:27.195Z,2.30
2019-03-06T15:38:34.775Z,2.13
2019-03-06T15:43:41.993Z,2.30
2019-03-06T15:48:48.638Z,2.50
2019-03-06T15:53:56.207Z,2.50
2019-03-06T15:59:02.824Z,2.37
2019-03-06T16:04:09.070Z,2.40
2019-03-06T16:09:16.094Z,2.27
2019-03-06T16:14:24.519Z,2.10
2019-03-06T16:19:43.436Z,2.13
2019-03-06T16:24:50.062Z,1.90
2019-03-06T16:29:56.179Z,1.90
2019-03-06T16:35:02.375Z,1.80
2019-03-06T16:40:23.191Z,1.87
2019-03-06T16:45:31.425Z,1.70
2019-03-06T16:50:56.741Z,2.40
2019-03-06T16:56:05.298Z,2.10
2019-03-06T17:01:12.320Z,2.33
2019-03-06T17:06:19.531Z,2.40
2019-03-06T17:11:26.467Z,2.90
2019-03-06T17:16:34.404Z,2.17
2019-03-06T17:21:42.187Z,2.10
2019-03-06T17:26:48.789Z,2.20
2019-03-06T17:31:55.714Z,2.30
2019-03-06T17:37:01.815Z,2.40
2019-03-06T17:42:08.608Z,2.43
2019-03-06T17:47:15.870Z,2.43
2019-03-06T17:52:23.608Z,2.30
2019-03-06T17:57:32.114Z,2.40
2019-03-06T18:02:40.586Z,2.63
2019-03-06T18:07:47.180Z,2.50
2019-03-06T18:12:53.598Z,2.77
2019-03-06T18:18:01.596Z,2.70
2019-03-06T18:23:08.183Z,2.90
2019-03-06T18:28:14.748Z,2.97
2019-03-06T18:33:21.266Z,3.50
2019-03-06T18:38:28.084Z,3.13
2019-03-06T18:43:35.324Z,3.20
2019-03-06T18:48:42.162Z,3.43
2019-03-06T18:53:48.227Z,3.63
2019-03-06T18:58:55.124Z,3.67
2019-03-06T19:04:02.755Z,3.43
2019-03-06T19:09:11.327Z,3.50
2019-03-06T19:14:18.205Z,3.40
2019-03-06T19:19:25.651Z,3.57
2019-03-06T19:24:32.683Z,3.30
2019-03-06T19:29:40.918Z,3.10
2019-03-06T19:35:06.598Z,3.50
2019-03-06T19:40:35.078Z,3.43
2019-03-06T19:45:41.646Z,3.13
2019-03-06T19:50:49.337Z,2.97
2019-03-06T19:55:56.236Z,3.40
2019-03-06T20:01:21.464Z,3.80
2019-03-06T20:06:29.915Z,3.80
2019-03-06T20:11:36.850Z,3.67
2019-03-06T20:16:43.787Z,3.67
2019-03-06T20:21:49.864Z,3.43
2019-03-06T20:26:58.219Z,3.73
2019-03-06T20:32:04.894Z,3.57
2019-03-06T20:37:11.569Z,3.63
2019-03-06T20:42:18.518Z,3.77
2019-03-06T20:47:37.333Z,3.90
2019-03-06T20:52:45.110Z,3.27
2019-03-06T20:57:53.052Z,3.50
2019-03-06T21:03:00.584Z,3.33
2019-03-06T21:08:07.555Z,3.20
2019-03-06T21:13:16.510Z,3.50
2019-03-06T21:18:23.067Z,3.30
2019-03-06T21:23:30.829Z,3.60
2019-03-06T21:28:37.878Z,3.23
2019-03-06T21:33:44.503Z,3.40
2019-03-06T21:38:51.463Z,3.67
2019-03-06T21:43:57.816Z,3.27
2019-03-06T21:49:03.908Z,3.47
2019-03-06T21:54:11.232Z,2.83
2019-03-06T21:59:18.413Z,3.30
2019-03-06T22:04:25.892Z,3.47
2019-03-06T22:09:32.783Z,3.50
2019-03-06T22:14:39.281Z,3.13
2019-03-06T22:19:45.678Z,3.10
2019-03-06T22:24:52.599Z,3.40
2019-03-06T22:29:59.429Z,3.10
2019-03-06T22:35:06.933Z,3.20
2019-03-06T22:40:17.652Z,3.10
2019-03-06T22:45:24.234Z,3.30
2019-03-06T22:50:30.894Z,3.07
2019-03-06T22:55:37.373Z,3.50
2019-03-06T23:00:55.319Z,3.60
2019-03-06T23:06:03.891Z,3.33
2019-03-06T23:11:10.772Z,3.80
2019-03-06T23:16:38.742Z,3.13
2019-03-06T23:21:46.126Z,3.40
2019-03-06T23:26:52.895Z,3.37
2019-03-06T23:31:59.971Z,3.60
2019-03-06T23:37:06.641Z,3.80
2019-03-06T23:42:25.909Z,3.23
2019-03-06T23:47:32.696Z,3.60
2019-03-06T23:52:56.380Z,3.30
2019-03-06T23:58:02.848Z,3.30
